Time;durP1;ratioP1;P1;durP2;ratioP2;P2;SDS_P1;SDS_P2;PMS_P1;PMS_P2;Temp;Humidity;BMP_temperature;BMP_pressure;BME280_temperature;BME280_humidity;BME280_pressure;Samples;Min_cycle;Max_cycle;Signal;HPM_P1;HPM_P2
2023/03/26 00:01:22;;;;;;;0.47;0.43;;;;;;;5.78;100.00;99555.53;6105244;23;20017;-92
2023/03/26 00:03:52;;;;;;;0.15;0.15;;;;;;;5.74;100.00;99535.53;6154605;23;20054;-92
2023/03/26 00:06:23;;;;;;;0.65;0.65;;;;;;;5.74;100.00;99550.09;6130492;23;20020;-92
2023/03/26 00:08:49;;;;;;;0.00;0.00;;;;;;;5.71;100.00;99542.63;6130607;23;20008;-91
2023/03/26 00:11:17;;;;;;;0.10;0.10;;;;;;;5.64;100.00;99542.75;6130405;23;20016;-92
2023/03/26 00:13:43;;;;;;;0.47;0.47;;;;;;;5.56;100.00;99525.56;6129998;23;20087;-91
2023/03/26 00:16:15;;;;;;;0.50;0.50;;;;;;;5.63;100.00;99541.97;6129853;23;20087;-91
2023/03/26 00:18:41;;;;;;;0.10;0.10;;;;;;;5.56;100.00;99531.06;6153923;23;20021;-92
2023/03/26 00:21:09;;;;;;;0.43;0.43;;;;;;;5.52;100.00;99530.34;6154902;23;20071;-92
2023/03/26 00:23:34;;;;;;;0.20;0.20;;;;;;;5.40;100.00;99517.16;6155008;23;20031;-92
2023/03/26 00:26:01;;;;;;;0.20;0.20;;;;;;;5.41;100.00;99521.47;6129215;23;20505;-92
2023/03/26 00:28:28;;;;;;;0.17;0.17;;;;;;;5.48;100.00;99535.13;6129875;23;20017;-91
2023/03/26 00:30:59;;;;;;;0.10;0.10;;;;;;;5.49;100.00;99536.69;6154433;23;20001;-92
2023/03/26 00:33:25;;;;;;;0.35;0.35;;;;;;;5.49;100.00;99558.69;6154073;23;20031;-92
2023/03/26 00:35:53;;;;;;;0.03;0.03;;;;;;;5.47;100.00;99547.31;6129012;23;20001;-92
2023/03/26 00:38:22;;;;;;;0.82;0.82;;;;;;;5.46;100.00;99548.50;6126631;23;20023;-93
2023/03/26 00:40:49;;;;;;;0.00;0.00;;;;;;;5.45;100.00;99551.69;6178631;23;20348;-92
2023/03/26 00:43:19;;;;;;;0.20;0.20;;;;;;;5.37;100.00;99533.72;6125565;23;20098;-92
2023/03/26 00:45:46;;;;;;;1.02;1.02;;;;;;;5.53;100.00;99553.91;6128273;23;20103;-92
2023/03/26 00:48:12;;;;;;;0.10;0.10;;;;;;;5.46;100.00;99543.00;6151197;23;20005;-93
2023/03/26 00:50:38;;;;;;;0.43;0.43;;;;;;;5.43;100.00;99549.31;6129313;23;20013;-92
2023/03/26 00:53:04;;;;;;;0.85;0.85;;;;;;;5.38;100.00;99552.53;6153425;23;20519;-91
2023/03/26 00:55:29;;;;;;;0.47;0.47;;;;;;;5.29;100.00;99549.53;6154832;23;20008;-91
2023/03/26 00:57:55;;;;;;;0.05;0.05;;;;;;;5.18;100.00;99520.63;6154599;23;20021;-92
2023/03/26 01:03:14;;;;;;;0.30;0.30;;;;;;;5.15;100.00;99533.22;6156593;23;20037;-91
2023/03/26 01:05:51;;;;;;;0.32;0.32;;;;;;;5.15;100.00;99524.97;6104326;23;20489;-90
2023/03/26 01:08:24;;;;;;;0.20;0.20;;;;;;;4.95;100.00;99491.06;6107574;23;20013;-90
2023/03/26 01:10:50;;;;;;;0.30;0.30;;;;;;;5.14;100.00;99517.91;6107624;23;20017;-90
2023/03/26 01:13:21;;;;;;;0.10;0.10;;;;;;;5.10;100.00;99509.69;6107053;23;20247;-90
2023/03/26 01:15:49;;;;;;;0.22;0.22;;;;;;;4.98;100.00;99484.72;6131384;23;20016;-90
2023/03/26 01:18:25;;;;;;;1.02;0.93;;;;;;;4.69;100.00;99460.34;6107230;23;20324;-91
2023/03/26 01:20:57;;;;;;;1.17;0.95;;;;;;;4.70;100.00;99469.38;6107942;23;20347;-90
2023/03/26 01:23:29;;;;;;;0.73;0.73;;;;;;;4.79;100.00;99479.88;6108090;23;20017;-90
2023/03/26 01:26:09;;;;;;;0.10;0.10;;;;;;;4.91;100.00;99520.56;6107178;23;20016;-90
2023/03/26 01:28:35;;;;;;;0.10;0.10;;;;;;;4.81;100.00;99524.22;6107088;23;20446;-90
2023/03/26 01:31:16;;;;;;;0.10;0.10;;;;;;;4.74;100.00;99516.03;6107232;23;20015;-90
2023/03/26 01:33:51;;;;;;;0.43;0.43;;;;;;;4.44;100.00;99479.13;6106479;23;20104;-89
2023/03/26 01:36:22;;;;;;;2.28;0.68;;;;;;;4.67;100.00;99520.44;6107645;23;20021;-90
2023/03/26 01:39:06;;;;;;;0.10;0.10;;;;;;;4.63;100.00;99524.41;6107367;23;20092;-90
2023/03/26 01:41:45;;;;;;;0.05;0.05;;;;;;;4.62;100.00;99517.34;6132033;23;20063;-91
2023/03/26 01:44:32;;;;;;;0.47;0.47;;;;;;;4.61;100.00;99527.56;6106388;23;20017;-90
2023/03/26 01:46:58;;;;;;;0.00;0.00;;;;;;;4.51;100.00;99506.50;6131132;23;20036;-91
2023/03/26 01:49:26;;;;;;;0.03;0.03;;;;;;;4.47;100.00;99515.94;6106466;23;20001;-90
2023/03/26 01:51:54;;;;;;;0.25;0.25;;;;;;;4.48;100.00;99520.25;6107275;23;20052;-90
2023/03/26 01:54:22;;;;;;;1.63;0.68;;;;;;;4.48;100.00;99521.03;6106990;23;20013;-89
2023/03/26 01:57:14;;;;;;;0.40;0.40;;;;;;;4.46;100.00;99520.66;6107271;23;20079;-90
2023/03/26 01:59:55;;;;;;;0.70;0.70;;;;;;;4.43;100.00;99510.50;6107043;23;20021;-90
2023/03/26 02:02:28;;;;;;;0.10;0.10;;;;;;;4.34;100.00;99510.19;6154586;23;20057;-90
2023/03/26 02:05:04;;;;;;;0.30;0.30;;;;;;;4.30;100.00;99505.91;6107265;23;20017;-90
2023/03/26 02:08:00;;;;;;;0.00;0.00;;;;;;;4.30;100.00;99494.94;6106614;23;20067;-90
2023/03/26 02:10:33;;;;;;;0.10;0.10;;;;;;;4.35;100.00;99509.00;6131514;23;20458;-90
2023/03/26 02:12:59;;;;;;;0.82;0.80;;;;;;;4.37;100.00;99503.88;6106850;23;20017;-90
2023/03/26 02:15:24;;;;;;;0.22;0.22;;;;;;;4.26;100.00;99492.22;6106644;23;20063;-90
2023/03/26 02:17:51;;;;;;;0.20;0.20;;;;;;;4.36;100.00;99493.31;6106413;23;20013;-90
2023/03/26 02:20:18;;;;;;;1.42;0.75;;;;;;;4.11;100.00;99488.84;6106372;23;20009;-90
2023/03/26 02:22:46;;;;;;;0.80;0.22;;;;;;;4.23;100.00;99502.06;6131221;23;20025;-89
2023/03/26 02:25:16;;;;;;;0.47;0.47;;;;;;;4.02;100.00;99463.06;6107523;23;20013;-89
2023/03/26 02:27:43;;;;;;;0.38;0.38;;;;;;;3.80;100.00;99439.75;6107100;23;20017;-89
2023/03/26 02:30:14;;;;;;;0.03;0.03;;;;;;;3.98;100.00;99463.09;6131326;23;20005;-90
2023/03/26 02:32:42;;;;;;;0.13;0.13;;;;;;;4.09;100.00;99491.22;6130769;23;20028;-90
2023/03/26 02:35:10;;;;;;;0.50;0.50;;;;;;;4.19;100.00;99495.06;6131289;23;20017;-90
2023/03/26 02:37:37;;;;;;;0.00;0.00;;;;;;;4.11;100.00;99483.38;6106342;23;20020;-90
2023/03/26 02:40:12;;;;;;;0.52;0.40;;;;;;;4.17;100.00;99498.19;6133106;23;20071;-89
2023/03/26 02:42:41;;;;;;;1.65;1.27;;;;;;;4.04;100.00;99491.69;6107819;23;20021;-90
2023/03/26 02:45:07;;;;;;;0.22;0.22;;;;;;;4.07;100.00;99503.78;6130897;23;20012;-89
2023/03/26 02:47:45;;;;;;;0.38;0.38;;;;;;;3.95;100.00;99477.63;6135919;23;20025;-89
2023/03/26 02:50:31;;;;;;;1.38;1.27;;;;;;;3.95;100.00;99480.38;6159688;23;20428;-89
2023/03/26 02:53:28;;;;;;;0.25;0.25;;;;;;;3.81;100.00;99479.72;6126031;23;20347;-89
2023/03/26 02:56:05;;;;;;;0.63;0.63;;;;;;;3.82;100.00;99486.75;6111944;23;20021;-89
2023/03/26 02:58:39;;;;;;;;;;;;;;;3.85;100.00;99485.94;6132475;23;20095;-89
2023/03/26 03:01:05;;;;;;;0.20;0.20;;;;;;;3.71;100.00;99465.69;6106046;23;19947;-89
2023/03/26 03:03:42;;;;;;;0.65;0.35;;;;;;;3.76;100.00;99481.69;6132925;23;20462;-89
2023/03/26 03:06:33;;;;;;;0.00;0.00;;;;;;;3.61;100.00;99469.28;6139060;23;20017;-90
2023/03/26 03:09:02;;;;;;;0.10;0.10;;;;;;;3.87;100.00;99500.84;6106079;23;20097;-89
2023/03/26 03:11:40;;;;;;;0.57;0.40;;;;;;;3.82;100.00;99492.25;6168597;23;20447;-90
2023/03/26 03:14:06;;;;;;;1.65;0.90;;;;;;;3.89;100.00;99514.13;6130670;23;20020;-90
2023/03/26 03:16:33;;;;;;;0.28;0.28;;;;;;;3.82;100.00;99505.97;6131351;23;20135;-89
2023/03/26 03:19:07;;;;;;;0.30;0.30;;;;;;;3.62;100.00;99484.56;6131565;23;20017;-89
2023/03/26 03:21:37;;;;;;;0.35;0.35;;;;;;;3.73;100.00;99506.41;6131233;23;20015;-89
2023/03/26 03:24:03;;;;;;;0.10;0.10;;;;;;;3.69;100.00;99481.75;6105466;23;20021;-90
2023/03/26 03:26:33;;;;;;;0.60;0.60;;;;;;;3.67;100.00;99486.88;6156127;23;20295;-89
2023/03/26 03:29:11;;;;;;;0.75;0.73;;;;;;;3.72;100.00;99500.16;6132707;23;20021;-90
2023/03/26 03:31:40;;;;;;;0.43;0.25;;;;;;;3.72;100.00;99511.13;6107243;23;20017;-90
2023/03/26 03:34:09;;;;;;;0.43;0.43;;;;;;;3.60;100.00;99486.91;6130671;23;20082;-89
2023/03/26 03:36:37;;;;;;;0.80;0.20;;;;;;;3.68;100.00;99504.88;6131167;23;20048;-90
2023/03/26 03:39:10;;;;;;;0.10;0.10;;;;;;;3.78;100.00;99516.97;6131685;23;20447;-90
2023/03/26 03:41:36;;;;;;;0.22;0.22;;;;;;;3.59;100.00;99479.91;6106105;23;20024;-89
2023/03/26 03:44:05;;;;;;;0.10;0.10;;;;;;;3.80;100.00;99511.88;6130575;23;20527;-90
2023/03/26 03:46:32;;;;;;;1.85;0.93;;;;;;;3.62;100.00;99501.03;6130829;23;20016;-89
2023/03/26 03:48:58;;;;;;;1.48;1.13;;;;;;;3.67;100.00;99513.53;6154259;23;20032;-90
2023/03/26 03:51:29;;;;;;;0.47;0.43;;;;;;;3.51;100.00;99489.38;6107965;23;19997;-89
2023/03/26 03:53:57;;;;;;;0.05;0.05;;;;;;;3.58;100.00;99504.97;6106825;23;20021;-89
2023/03/26 03:56:40;;;;;;;0.80;0.80;;;;;;;3.57;100.00;99506.94;6134372;23;20017;-89
2023/03/26 03:59:35;;;;;;;0.00;0.00;;;;;;;3.45;100.00;99490.94;6136924;23;20411;-89
2023/03/26 04:02:04;;;;;;;0.08;0.08;;;;;;;3.56;100.00;99502.63;6129972;23;20040;-90
2023/03/26 04:04:36;;;;;;;0.10;0.10;;;;;;;3.47;100.00;99491.34;6107947;23;20336;-89
2023/03/26 04:07:05;;;;;;;0.10;0.10;;;;;;;3.64;100.00;99515.09;6155026;23;20072;-89
2023/03/26 04:09:50;;;;;;;0.30;0.30;;;;;;;3.60;100.00;99525.31;6158981;23;20063;-89
2023/03/26 04:12:18;;;;;;;0.20;0.20;;;;;;;3.61;100.00;99524.13;6106522;23;20024;-90
2023/03/26 04:14:51;;;;;;;0.52;0.50;;;;;;;3.49;100.00;99505.41;6131701;23;20009;-89
2023/03/26 04:17:20;;;;;;;0.25;0.25;;;;;;;3.49;100.00;99524.63;6105905;23;20379;-90
2023/03/26 04:19:47;;;;;;;0.45;0.45;;;;;;;3.23;100.00;99473.09;6130565;23;20157;-90
2023/03/26 04:22:17;;;;;;;0.30;0.30;;;;;;;3.37;100.00;99503.16;6129743;23;20451;-90
2023/03/26 04:24:53;;;;;;;0.57;0.57;;;;;;;3.46;100.00;99506.22;6132434;23;20017;-89
2023/03/26 04:27:42;;;;;;;0.10;0.10;;;;;;;3.53;100.00;99514.41;6114631;23;20538;-90
2023/03/26 04:30:32;;;;;;;2.42;1.23;;;;;;;3.55;100.00;99506.56;6156591;23;20091;-89
2023/03/26 04:33:08;;;;;;;0.55;0.50;;;;;;;3.53;100.00;99503.44;6131212;23;20022;-90
2023/03/26 04:35:40;;;;;;;0.00;0.00;;;;;;;3.49;100.00;99502.69;6130218;23;20005;-90
2023/03/26 04:38:08;;;;;;;2.88;2.25;;;;;;;3.45;100.00;99501.91;6130033;23;20344;-90
2023/03/26 04:40:37;;;;;;;0.00;0.00;;;;;;;3.41;100.00;99503.13;6131131;23;20005;-90
2023/03/26 04:43:03;;;;;;;0.57;0.57;;;;;;;3.54;100.00;99518.72;6130511;23;20071;-90
2023/03/26 04:46:02;;;;;;;0.85;0.75;;;;;;;3.55;100.00;99500.31;6110336;23;20097;-89
2023/03/26 04:48:29;;;;;;;0.30;0.20;;;;;;;3.66;100.00;99499.03;6129730;23;20422;-89
2023/03/26 04:50:57;;;;;;;0.90;0.55;;;;;;;3.67;100.00;99500.59;6129883;23;20024;-89
2023/03/26 04:53:23;;;;;;;0.93;0.93;;;;;;;3.58;100.00;99497.53;6104737;23;20063;-90
2023/03/26 04:56:38;;;;;;;0.25;0.25;;;;;;;3.67;100.00;99508.84;6115497;23;20028;-89
2023/03/26 04:59:33;;;;;;;0.10;0.10;;;;;;;3.64;100.00;99506.88;6146201;23;20332;-89
2023/03/26 05:02:00;;;;;;;0.32;0.32;;;;;;;3.62;100.00;99509.25;6102079;23;20093;-89
2023/03/26 05:04:30;;;;;;;0.30;0.30;;;;;;;3.43;100.00;99504.31;6103953;23;20013;-89
2023/03/26 05:06:57;;;;;;;0.00;0.00;;;;;;;3.43;100.00;99498.81;6127022;23;20017;-89
2023/03/26 05:09:32;;;;;;;0.52;0.52;;;;;;;3.23;100.00;99484.06;6127733;23;20028;-89
2023/03/26 05:12:10;;;;;;;0.65;0.65;;;;;;;3.33;100.00;99505.13;6108253;23;20024;-89
2023/03/26 05:14:48;;;;;;;0.75;0.75;;;;;;;3.30;100.00;99497.72;6109725;23;20017;-90
2023/03/26 05:17:21;;;;;;;0.30;0.30;;;;;;;3.27;100.00;99504.00;6128875;23;20021;-89
2023/03/26 05:19:47;;;;;;;0.20;0.20;;;;;;;3.21;100.00;99486.41;6126666;23;20044;-89
2023/03/26 05:22:13;;;;;;;0.13;0.13;;;;;;;3.38;100.00;99517.63;6103325;23;20532;-90
2023/03/26 05:24:58;;;;;;;0.73;0.73;;;;;;;3.42;100.00;99513.69;6157458;23;20008;-90
2023/03/26 05:27:24;;;;;;;0.63;0.63;;;;;;;3.44;100.00;99514.06;6128243;23;20454;-90
2023/03/26 05:29:50;;;;;;;0.38;0.38;;;;;;;3.09;100.00;99462.22;6128236;23;20331;-90
2023/03/26 05:32:15;;;;;;;0.20;0.20;;;;;;;3.28;100.00;99483.63;6126906;23;20515;-90
2023/03/26 05:34:41;;;;;;;0.47;0.47;;;;;;;3.61;100.00;99512.38;6128292;23;20009;-90
2023/03/26 05:37:08;;;;;;;0.90;0.47;;;;;;;3.49;100.00;99497.19;6102771;23;20027;-89
2023/03/26 05:40:00;;;;;;;0.22;0.22;;;;;;;3.54;100.00;99499.50;6149379;23;20009;-89
2023/03/26 05:42:41;;;;;;;0.80;0.80;;;;;;;3.64;100.00;99520.59;6109876;23;20021;-90
2023/03/26 05:45:29;;;;;;;0.60;0.60;;;;;;;3.33;100.00;99474.19;6121628;23;20052;-91
2023/03/26 05:47:57;;;;;;;0.63;0.63;;;;;;;3.36;100.00;99493.34;6128522;23;20086;-90
2023/03/26 05:50:24;;;;;;;0.10;0.10;;;;;;;3.45;100.00;99515.63;6105078;23;20479;-90
2023/03/26 05:52:54;;;;;;;2.83;0.63;;;;;;;3.29;100.00;99518.06;6106505;23;20047;-89
2023/03/26 05:55:39;;;;;;;0.73;0.73;;;;;;;3.46;100.00;99517.19;6157379;23;20513;-91
2023/03/26 05:58:30;;;;;;;0.22;0.22;;;;;;;3.61;100.00;99509.66;6094422;23;20021;-89
2023/03/26 06:01:24;;;;;;;2.20;2.00;;;;;;;3.77;100.00;99501.69;6057011;23;20015;-90
2023/03/26 06:04:11;;;;;;;0.57;0.57;;;;;;;3.71;100.00;99504.09;6158199;23;20478;-90
2023/03/26 06:06:43;;;;;;;0.10;0.10;;;;;;;3.68;100.00;99499.41;6108270;23;20349;-90
2023/03/26 06:09:12;;;;;;;0.20;0.20;;;;;;;3.65;100.00;99483.75;6129964;23;20013;-90
2023/03/26 06:11:38;;;;;;;0.10;0.10;;;;;;;3.59;100.00;99474.41;6130306;23;20009;-90
2023/03/26 06:14:06;;;;;;;0.95;0.90;;;;;;;3.91;100.00;99506.28;6129454;23;20381;-90
2023/03/26 06:16:33;;;;;;;0.63;0.63;;;;;;;3.85;100.00;99508.69;6105519;23;20017;-90
2023/03/26 06:19:11;;;;;;;0.17;0.17;;;;;;;3.61;100.00;99483.00;6109667;23;20459;-91
2023/03/26 06:21:54;;;;;;;0.45;0.45;;;;;;;3.43;100.00;99492.56;6132284;23;20016;-90
2023/03/26 06:24:23;;;;;;;0.20;0.20;;;;;;;3.48;100.00;99506.59;6129497;23;20016;-90
2023/03/26 06:27:08;;;;;;;;;;;;;;;3.62;100.00;99501.03;6158800;23;20091;-91
2023/03/26 06:29:35;;;;;;;0.00;0.00;;;;;;;3.57;100.00;99473.25;6153526;23;19916;-92
2023/03/26 06:32:10;;;;;;;2.30;1.25;;;;;;;3.32;100.00;99426.81;6133219;23;20013;-92
2023/03/26 06:34:43;;;;;;;;;;;;;;;3.80;100.00;99494.63;6109817;23;20016;-91
2023/03/26 06:37:09;;;;;;;0.40;0.40;;;;;;;3.34;100.00;99432.69;6155289;23;19912;-92
2023/03/26 06:39:35;;;;;;;0.70;0.50;;;;;;;3.65;100.00;99452.81;6156183;23;20024;-91
2023/03/26 06:42:24;;;;;;;1.40;1.35;;;;;;;3.83;100.00;99477.34;6160308;23;20099;-92
2023/03/26 06:45:16;;;;;;;0.32;0.32;;;;;;;3.83;100.00;99455.41;6116470;23;20047;-92
2023/03/26 06:48:00;;;;;;;0.85;0.85;;;;;;;3.76;100.00;99448.78;6159134;23;20036;-92
2023/03/26 06:50:49;;;;;;;0.20;0.20;;;;;;;4.17;100.00;99503.69;6146149;23;20021;-92
2023/03/26 06:53:50;;;;;;;0.10;0.10;;;;;;;3.69;100.00;99448.84;6162325;23;20017;-92
2023/03/26 06:56:30;;;;;;;0.60;0.45;;;;;;;3.82;100.00;99473.81;6112033;23;20040;-91
2023/03/26 06:59:22;;;;;;;0.10;0.10;;;;;;;3.90;100.00;99460.81;6115818;23;20072;-92
2023/03/26 07:02:26;;;;;;;0.10;0.10;;;;;;;4.02;100.00;99474.03;6059914;23;20527;-91
2023/03/26 07:05:11;;;;;;;0.10;0.10;;;;;;;4.18;100.00;99455.84;6060167;23;20029;-93
2023/03/26 07:07:55;;;;;;;0.90;0.75;;;;;;;4.67;100.00;99486.69;6125834;23;20123;-92
2023/03/26 07:10:39;;;;;;;0.00;0.00;;;;;;;4.84;100.00;99476.69;6180165;23;20028;-92
2023/03/26 07:13:44;;;;;;;0.10;0.10;;;;;;;5.34;100.00;99491.28;6161989;23;20021;-91
2023/03/26 07:16:28;;;;;;;0.65;0.65;;;;;;;5.34;100.00;99441.78;6159078;23;20028;-93
2023/03/26 07:49:16;;;;;;;1.02;0.93;;;;;;;9.89;100.00;99444.25;6186383;23;20025;-91
2023/03/26 07:52:02;;;;;;;5.82;1.83;;;;;;;9.97;100.00;99396.47;6143310;23;20065;-91
2023/03/26 07:54:48;;;;;;;0.57;0.57;;;;;;;9.71;100.00;99406.81;6169165;23;20016;-91
2023/03/26 07:57:48;;;;;;;0.55;0.55;;;;;;;9.77;100.00;99404.28;6189168;23;20090;-91
2023/03/26 08:00:36;;;;;;;0.10;0.10;;;;;;;9.96;100.00;99394.13;6185063;23;20059;-90
2023/03/26 08:03:23;;;;;;;0.80;0.70;;;;;;;10.33;100.00;99429.28;6184738;23;20024;-91
2023/03/26 08:06:16;;;;;;;1.55;0.70;;;;;;;9.89;100.00;99386.84;6168183;23;20044;-90
2023/03/26 08:09:20;;;;;;;4.70;2.10;;;;;;;10.30;100.00;99427.41;6167246;23;20043;-90
2023/03/26 08:11:55;;;;;;;0.50;0.50;;;;;;;9.97;100.00;99399.25;6222151;23;20016;-90
2023/03/26 08:14:24;;;;;;;0.45;0.43;;;;;;;10.23;100.00;99411.78;6184245;23;20070;-90
2023/03/26 08:17:19;;;;;;;0.30;0.30;;;;;;;10.17;100.00;99398.97;6184924;23;20111;-90
2023/03/26 08:20:10;;;;;;;0.40;0.40;;;;;;;10.18;100.00;99423.47;6179829;23;20024;-91
2023/03/26 08:22:41;;;;;;;0.30;0.30;;;;;;;9.87;100.00;99386.50;6181950;23;20117;-90
2023/03/26 08:25:26;;;;;;;0.40;0.40;;;;;;;10.40;100.00;99431.03;6182119;23;20020;-90
2023/03/26 08:28:14;;;;;;;0.38;0.38;;;;;;;10.69;100.00;99428.78;6182744;23;20012;-90
2023/03/26 08:30:40;;;;;;;0.40;0.40;;;;;;;10.59;100.00;99410.53;6181710;23;20100;-90
2023/03/26 08:33:11;;;;;;;0.50;0.47;;;;;;;10.24;100.00;99357.91;6208412;23;19997;-90
2023/03/26 08:35:47;;;;;;;1.63;1.52;;;;;;;10.17;100.00;99360.94;6208461;23;20096;-90
2023/03/26 08:38:16;;;;;;;1.10;0.85;;;;;;;10.39;100.00;99368.50;6181457;23;20020;-90
2023/03/26 08:40:51;;;;;;;0.95;0.55;;;;;;;10.93;100.00;99404.88;6182484;23;20439;-89
2023/03/26 08:43:32;;;;;;;5.13;1.17;;;;;;;11.14;100.00;99409.63;6207017;23;20013;-90
2023/03/26 08:46:03;;;;;;;0.55;0.55;;;;;;;11.35;100.00;99399.69;6184652;23;20028;-90
2023/03/26 08:48:48;;;;;;;0.22;0.22;;;;;;;11.43;100.00;99375.94;6184239;23;20023;-90
2023/03/26 08:51:38;;;;;;;0.15;0.13;;;;;;;11.81;100.00;99372.78;6183544;23;20043;-91
2023/03/26 08:54:25;;;;;;;0.63;0.63;;;;;;;12.01;100.00;99387.00;6210240;23;20012;-89
2023/03/26 08:56:59;;;;;;;1.48;0.80;;;;;;;12.00;100.00;99377.16;6184227;23;20020;-92
2023/03/26 08:59:45;;;;;;;0.30;0.30;;;;;;;11.96;100.00;99329.28;6184233;23;20074;-91
2023/03/26 09:02:30;;;;;;;1.20;0.85;;;;;;;12.00;100.00;99332.69;6183981;23;20016;-91
2023/03/26 09:05:23;;;;;;;0.10;0.10;;;;;;;12.52;100.00;99362.13;6159066;23;20531;-89
2023/03/26 09:08:09;;;;;;;0.35;0.35;;;;;;;12.84;100.00;99357.09;6211025;23;20088;-90
2023/03/26 09:10:56;;;;;;;0.40;0.40;;;;;;;13.13;100.00;99356.56;6158991;23;20016;-89
2023/03/26 13:06:27;;;;;;;0.00;0.00;;;;;;;18.24;48.42;98934.03;6211145;23;20051;-90
2023/03/26 13:09:33;;;;;;;0.05;0.05;;;;;;;18.18;47.47;98936.09;6160068;23;20009;-90
2023/03/26 13:12:30;;;;;;;0.10;0.10;;;;;;;18.06;47.10;98937.41;6159807;23;20460;-90
2023/03/26 13:15:11;;;;;;;0.52;0.40;;;;;;;17.25;48.07;98908.44;6159113;23;20021;-89
2023/03/26 13:18:06;;;;;;;0.00;0.00;;;;;;;17.16;48.00;98908.69;6182171;23;20017;-92
2023/03/26 13:20:53;;;;;;;0.00;0.00;;;;;;;17.00;48.59;98917.09;6159597;23;20012;-88
2023/03/26 13:23:46;;;;;;;0.20;0.20;;;;;;;16.97;47.84;98887.28;6209813;23;20309;-88
2023/03/26 13:26:15;;;;;;;0.15;0.15;;;;;;;16.97;47.46;98895.69;6208361;23;20020;-89
2023/03/26 13:28:52;;;;;;;0.08;0.08;;;;;;;16.60;48.56;98882.66;6211072;23;20023;-89
2023/03/26 13:31:25;;;;;;;0.03;0.03;;;;;;;16.50;49.16;98869.38;6209101;23;20020;-89
2023/03/26 13:33:54;;;;;;;0.20;0.17;;;;;;;16.65;49.13;98867.16;6210367;23;20021;-90
2023/03/26 13:36:41;;;;;;;0.10;0.10;;;;;;;16.89;49.10;98863.84;6207816;23;20463;-91
2023/03/26 13:39:26;;;;;;;0.10;0.10;;;;;;;16.96;48.99;98860.53;6210351;23;20036;-89
2023/03/26 13:42:09;;;;;;;0.55;0.40;;;;;;;16.88;50.05;98860.28;6209338;23;20389;-92
2023/03/26 13:45:14;;;;;;;0.00;0.00;;;;;;;16.91;51.00;98848.06;6210834;23;20017;-90
2023/03/26 13:47:45;;;;;;;0.43;0.43;;;;;;;16.85;51.64;98855.72;6182012;23;20020;-91
2023/03/26 13:50:22;;;;;;;0.13;0.13;;;;;;;16.82;53.32;98847.56;6181743;23;20437;-90
2023/03/26 13:53:09;;;;;;;0.55;0.20;;;;;;;16.66;52.92;98819.03;6181511;23;20016;-90
2023/03/26 13:55:58;;;;;;;0.00;0.00;;;;;;;16.51;53.81;98815.69;6182857;23;20013;-90
2023/03/26 13:58:43;;;;;;;0.30;0.30;;;;;;;16.38;54.73;98820.25;6182224;23;20119;-90
2023/03/26 14:01:18;;;;;;;0.00;0.00;;;;;;;16.55;56.04;98821.78;6182003;23;20012;-90
2023/03/26 14:03:53;;;;;;;0.45;0.45;;;;;;;16.75;56.37;98824.38;6182738;23;20032;-89
2023/03/26 14:06:21;;;;;;;0.15;0.15;;;;;;;16.76;55.20;98813.94;6208073;23;20421;-90
2023/03/26 14:08:55;;;;;;;0.45;0.20;;;;;;;16.54;57.18;98803.47;6158597;23;20016;-90
2023/03/26 14:11:46;;;;;;;0.25;0.25;;;;;;;16.70;58.80;98808.34;6181895;23;20012;-90
2023/03/26 14:14:19;;;;;;;0.25;0.22;;;;;;;16.75;58.85;98790.78;6182855;23;20019;-91
2023/03/26 14:17:11;;;;;;;0.20;0.20;;;;;;;16.53;58.40;98757.16;6132343;23;20095;-90
2023/03/26 14:19:50;;;;;;;0.22;0.22;;;;;;;16.63;59.82;98782.88;6208961;23;20445;-91
2023/03/26 14:22:30;;;;;;;0.00;0.00;;;;;;;16.65;59.67;98778.31;6181683;23;20463;-90
2023/03/26 14:25:19;;;;;;;0.17;0.17;;;;;;;16.53;61.79;98771.16;6183938;23;20074;-92
2023/03/26 14:27:59;;;;;;;0.05;0.05;;;;;;;16.71;62.23;98762.28;6180829;23;20460;-93
2023/03/26 14:30:47;;;;;;;0.20;0.20;;;;;;;16.71;61.58;98775.50;6156000;23;20031;-91
2023/03/26 14:33:12;;;;;;;0.10;0.10;;;;;;;16.65;62.13;98763.56;6209659;23;20024;-92
2023/03/26 14:35:56;;;;;;;0.30;0.30;;;;;;;16.70;62.88;98766.34;6209764;23;20012;-90
2023/03/26 14:38:28;;;;;;;0.10;0.10;;;;;;;16.77;64.21;98760.25;6181728;23;20020;-92
2023/03/26 14:40:56;;;;;;;0.20;0.20;;;;;;;16.87;62.80;98737.56;6184414;23;20020;-91
2023/03/26 14:43:25;;;;;;;0.20;0.20;;;;;;;16.92;61.66;98737.56;6134560;23;20397;-92
2023/03/26 14:46:13;;;;;;;0.00;0.00;;;;;;;16.92;61.07;98737.56;6209924;23;20019;-88
2023/03/26 14:48:57;;;;;;;7.47;0.50;;;;;;;16.88;61.59;98730.69;6183867;23;20449;-89
2023/03/26 14:51:55;;;;;;;0.57;0.13;;;;;;;16.67;60.71;98705.00;6210078;23;20020;-90
2023/03/26 14:54:26;;;;;;;0.10;0.10;;;;;;;16.47;62.13;98696.84;6209318;23;20452;-91
2023/03/26 14:57:20;;;;;;;0.00;0.00;;;;;;;16.56;64.00;98719.75;6156597;23;20467;-91
2023/03/26 14:59:51;;;;;;;;;;;;;;;16.51;64.83;98717.72;6207523;23;20043;-92
2023/03/26 15:02:42;;;;;;;0.17;0.17;;;;;;;16.54;68.10;98707.53;6181874;23;20181;-90
2023/03/26 15:05:45;;;;;;;0.40;0.40;;;;;;;16.45;68.00;98699.41;6157655;23;20063;-90
2023/03/26 15:08:48;;;;;;;0.10;0.10;;;;;;;16.32;66.76;98697.88;6095659;23;20027;-95
2023/03/26 15:11:29;;;;;;;0.38;0.38;;;;;;;16.46;66.55;98707.25;6156911;23;20107;-90
2023/03/26 15:14:14;;;;;;;0.32;0.32;;;;;;;16.50;67.09;98696.56;6157732;23;20028;-92
2023/03/26 15:17:08;;;;;;;0.65;0.22;;;;;;;16.48;67.23;98684.38;6180485;23;20107;-96
2023/03/26 15:20:11;;;;;;;0.63;0.63;;;;;;;16.43;68.80;98674.72;6183672;23;20433;-93
2023/03/26 15:22:45;;;;;;;0.20;0.20;;;;;;;16.42;70.97;98689.22;6113359;23;20020;-96
2023/03/26 15:25:30;;;;;;;;;;;;;;;16.37;72.34;98682.34;6158112;23;20252;-92
2023/03/26 15:28:25;;;;;;;0.35;0.35;;;;;;;16.23;74.57;98660.97;6156279;23;20002;-90
2023/03/26 15:31:22;;;;;;;0.10;0.10;;;;;;;16.15;76.59;98671.16;6124667;23;20047;-91
2023/03/26 15:33:57;;;;;;;0.25;0.25;;;;;;;16.09;78.49;98667.59;6156039;23;20020;-91
2023/03/26 15:37:00;;;;;;;1.95;0.52;;;;;;;16.08;77.96;98657.69;6209179;23;20016;-90
2023/03/26 15:39:36;;;;;;;0.20;0.20;;;;;;;16.00;80.59;98659.44;6180659;23;20016;-91
2023/03/26 15:42:26;;;;;;;0.40;0.40;;;;;;;15.86;81.13;98653.56;6157275;23;20396;-91
2023/03/26 15:44:57;;;;;;;0.43;0.43;;;;;;;15.70;82.57;98643.13;6209744;23;20023;-91
2023/03/26 15:47:56;;;;;;;0.00;0.00;;;;;;;15.73;83.88;98656.09;6207650;23;20035;-91
2023/03/26 15:50:55;;;;;;;1.10;0.70;;;;;;;15.66;84.87;98656.59;6155167;23;20021;-92
2023/03/26 15:53:40;;;;;;;0.60;0.50;;;;;;;15.58;85.56;98658.34;6132468;23;20024;-91
2023/03/26 15:56:31;;;;;;;0.45;0.45;;;;;;;15.58;87.00;98652.00;6209140;23;20074;-91
2023/03/26 15:59:25;;;;;;;0.17;0.17;;;;;;;15.48;87.38;98643.06;6183127;23;20024;-93
2023/03/26 16:02:20;;;;;;;0.17;0.17;;;;;;;15.46;88.44;98628.06;6180859;23;20017;-91
2023/03/26 16:04:56;;;;;;;0.65;0.65;;;;;;;15.43;89.64;98635.41;6145084;23;20024;-92
2023/03/26 16:07:45;;;;;;;0.20;0.20;;;;;;;15.31;91.39;98631.06;6125353;23;20021;-91
2023/03/26 16:10:37;;;;;;;1.75;1.50;;;;;;;15.24;91.87;98623.19;6102832;23;20012;-91
2023/03/26 16:13:24;;;;;;;0.32;0.32;;;;;;;15.23;92.49;98632.81;6178795;23;20051;-90
2023/03/26 16:15:56;;;;;;;0.77;0.60;;;;;;;15.18;92.74;98619.59;6177806;23;20017;-91
2023/03/26 16:18:34;;;;;;;2.42;1.33;;;;;;;15.14;93.40;98619.06;6128152;23;20017;-91
2023/03/26 16:21:21;;;;;;;1.75;1.30;;;;;;;14.94;94.07;98600.44;6151745;23;20083;-91
2023/03/26 16:24:06;;;;;;;1.27;1.17;;;;;;;14.99;94.90;98612.91;6157959;23;20353;-91
2023/03/26 16:26:42;;;;;;;0.20;0.20;;;;;;;15.04;95.14;98614.97;6152413;23;20013;-91
2023/03/26 16:29:22;;;;;;;0.22;0.22;;;;;;;15.03;95.16;98619.03;6177584;23;20035;-91
2023/03/26 16:32:16;;;;;;;0.13;0.13;;;;;;;14.88;96.37;98613.63;6176695;23;20495;-91
2023/03/26 16:34:53;;;;;;;0.00;0.00;;;;;;;14.86;97.09;98616.91;6111304;23;20480;-91
2023/03/26 16:37:32;;;;;;;0.65;0.55;;;;;;;14.85;97.66;98612.59;6151838;23;20032;-90
2023/03/26 16:40:16;;;;;;;0.60;0.60;;;;;;;14.78;98.66;98632.63;6152963;23;20016;-91
2023/03/26 16:42:45;;;;;;;0.65;0.32;;;;;;;14.76;99.17;98623.97;6176974;23;20314;-94
2023/03/26 16:45:49;;;;;;;0.63;0.60;;;;;;;14.66;100.00;98625.44;6178926;23;20496;-91
2023/03/26 16:48:36;;;;;;;1.05;0.70;;;;;;;14.65;100.00;98629.50;6126603;23;20021;-90
2023/03/26 16:51:22;;;;;;;0.30;0.30;;;;;;;14.64;100.00;98639.13;6175851;23;20048;-91